Clyde, Kansas
Current Conditions -  °F | °C
As of 3:55 PM on Monday 22 Dec 2014 (Local Time) from KCNK Reporting Station
Broken Clouds Broken Clouds  
Wind Chill: 43°   Ceiling: 6000
Heat Index: 49°   Visibility: 10mi
Dew Point: 34°   Wind: 16mph
Humidity: 56%   Direction: 330°NNW
Pressure: 29.49"   Gusts: NA
Location:  39.59°N, 97.4°W
Report Text: KCNK 222155Z AUTO 33014KT 10SM BKN060 09/01 A2949 RMK AO2 SLP987 T00940011
Loading
Personal Weather Stations






























Interactive Weather Map New forecast layout! Learn more

10-Day Weather Forecast

Advertisements
Track Severe Weather on mobile